createdAt,value
2023-01-04T00:01:01.723Z,72.44
2023-01-04T00:02:04.775Z,72.83
2023-01-04T00:03:06.810Z,72.37
2023-01-04T00:04:12.146Z,72.77
2023-01-04T00:05:14.060Z,72.50
2023-01-04T00:06:18.218Z,72.54
2023-01-04T00:07:22.514Z,72.57
2023-01-04T00:08:24.382Z,72.87
2023-01-04T00:09:27.249Z,72.57
2023-01-04T00:10:29.179Z,72.48
2023-01-04T00:11:31.982Z,72.60
2023-01-04T00:12:35.810Z,72.60
2023-01-04T00:13:38.770Z,72.74
2023-01-04T00:15:04.095Z,72.34
2023-01-04T00:16:23.060Z,73.01
2023-01-04T00:18:21.046Z,72.32
2023-01-04T00:19:30.853Z,72.51
2023-01-04T00:20:35.135Z,72.32
2023-01-04T00:21:43.063Z,72.72
2023-01-04T00:23:10.426Z,72.72
2023-01-04T00:26:59.754Z,72.48
2023-01-04T00:28:01.869Z,72.28
2023-01-04T00:29:15.051Z,72.30
2023-01-04T00:30:19.623Z,72.14
2023-01-04T00:31:23.861Z,72.70
2023-01-04T00:32:25.858Z,72.86
2023-01-04T00:33:31.686Z,72.38
2023-01-04T00:34:34.598Z,72.61
2023-01-04T00:35:45.736Z,72.46
2023-01-04T00:36:49.292Z,72.28
2023-01-04T00:37:52.257Z,72.29
2023-01-04T00:39:08.909Z,72.02
2023-01-04T00:40:12.266Z,72.16
2023-01-04T00:41:41.918Z,72.62
2023-01-04T00:42:38.175Z,72.29
2023-01-04T00:43:40.157Z,72.54
2023-01-04T00:44:43.211Z,71.95
2023-01-04T00:45:45.135Z,72.43
2023-01-04T00:46:49.122Z,72.21
2023-01-04T00:47:51.010Z,71.53
2023-01-04T00:48:58.213Z,72.42
2023-01-04T00:50:03.795Z,72.08
2023-01-04T00:51:06.979Z,72.09
2023-01-04T00:52:09.778Z,72.05
2023-01-04T00:53:13.327Z,72.08
2023-01-04T00:54:17.075Z,72.14
2023-01-04T00:55:20.061Z,72.06
2023-01-04T00:56:22.008Z,71.92
2023-01-04T00:57:24.860Z,71.80
2023-01-04T00:58:26.700Z,72.28
2023-01-04T00:59:29.755Z,72.54
2023-01-04T01:00:32.054Z,72.58
2023-01-04T01:01:36.046Z,72.16
2023-01-04T01:02:38.269Z,72.93
2023-01-04T01:03:41.440Z,72.96
2023-01-04T01:04:44.443Z,72.16
2023-01-04T01:05:46.290Z,72.97
2023-01-04T01:06:49.877Z,72.66
2023-01-04T01:07:54.277Z,72.80
2023-01-04T01:08:57.093Z,72.69
2023-01-04T01:10:00.586Z,72.66
2023-01-04T01:11:06.212Z,72.71
2023-01-04T01:12:08.660Z,72.50
2023-01-04T01:13:11.669Z,72.49
2023-01-04T01:14:17.356Z,72.48
2023-01-04T01:15:20.432Z,72.54
2023-01-04T01:16:53.632Z,72.71
2023-01-04T01:17:48.655Z,72.40
2023-01-04T01:18:51.038Z,72.03
2023-01-04T01:19:54.002Z,71.90
2023-01-04T01:20:55.903Z,71.86
2023-01-04T01:22:01.989Z,72.43
2023-01-04T01:23:03.960Z,71.70
2023-01-04T01:24:08.020Z,71.55
2023-01-04T01:25:13.364Z,71.80
2023-01-04T01:26:18.608Z,71.34
2023-01-04T01:27:23.462Z,71.53
2023-01-04T01:28:28.769Z,71.81
2023-01-04T01:29:32.326Z,71.66
2023-01-04T01:30:34.944Z,71.95
2023-01-04T01:31:37.988Z,72.05
2023-01-04T01:32:40.020Z,72.01
2023-01-04T01:33:44.611Z,72.33
2023-01-04T01:34:46.997Z,71.93
2023-01-04T01:35:49.891Z,72.20
2023-01-04T01:36:53.083Z,71.85
2023-01-04T01:37:54.989Z,72.03
2023-01-04T01:38:58.015Z,72.03
2023-01-04T01:40:03.797Z,71.67
2023-01-04T01:41:09.690Z,72.08
2023-01-04T01:42:18.972Z,71.92
2023-01-04T01:43:24.885Z,71.72
2023-01-04T01:44:59.297Z,71.92
2023-01-04T01:46:42.323Z,71.79
2023-01-04T01:47:46.660Z,71.86
2023-01-04T01:48:53.443Z,71.81
2023-01-04T01:49:55.660Z,71.88
2023-01-04T01:51:03.913Z,71.95
2023-01-04T01:52:12.099Z,72.01
2023-01-04T01:53:29.341Z,72.04
2023-01-04T01:54:34.718Z,72.38
2023-01-04T01:55:45.776Z,72.46
2023-01-04T01:56:58.045Z,72.15
2023-01-04T01:58:00.658Z,72.46
2023-01-04T01:59:07.460Z,72.15
2023-01-04T02:00:16.182Z,71.88
2023-01-04T02:01:40.411Z,72.13
2023-01-04T02:03:08.721Z,72.30
2023-01-04T02:04:13.940Z,72.37
2023-01-04T02:05:21.440Z,72.28
2023-01-04T02:06:28.811Z,72.14
2023-01-04T02:07:31.423Z,72.33
2023-01-04T02:08:37.650Z,72.13
2023-01-04T02:09:40.337Z,72.40
2023-01-04T02:10:43.123Z,72.07
2023-01-04T02:11:44.992Z,72.29
2023-01-04T02:12:52.727Z,72.35
2023-01-04T02:14:14.634Z,72.06
2023-01-04T02:15:17.748Z,72.29
2023-01-04T02:16:27.331Z,72.26
2023-01-04T02:17:40.343Z,72.02
2023-01-04T02:18:52.721Z,71.99
2023-01-04T02:20:20.397Z,72.22
2023-01-04T02:21:29.298Z,72.06
2023-01-04T02:22:56.284Z,72.39
2023-01-04T02:24:16.330Z,72.22
2023-01-04T02:25:37.950Z,72.15
2023-01-04T02:27:28.462Z,72.45
2023-01-04T02:28:53.721Z,72.58
2023-01-04T02:30:31.535Z,72.66
2023-01-04T02:31:40.933Z,72.33
2023-01-04T02:32:57.964Z,72.87
2023-01-04T02:34:05.638Z,72.52
2023-01-04T02:35:24.712Z,72.74
2023-01-04T02:36:34.717Z,72.58
2023-01-04T02:37:45.352Z,72.59
2023-01-04T02:39:04.178Z,72.54
2023-01-04T02:40:19.648Z,72.20
2023-01-04T02:41:30.189Z,72.61
2023-01-04T02:42:58.467Z,72.72
2023-01-04T02:44:32.870Z,72.81
2023-01-04T02:45:39.538Z,72.42
2023-01-04T02:46:49.790Z,72.52
2023-01-04T02:48:10.443Z,72.69
2023-01-04T02:49:33.602Z,72.41
2023-01-04T02:50:40.016Z,72.65
2023-01-04T02:51:42.867Z,72.61
2023-01-04T02:52:44.775Z,72.70
2023-01-04T02:53:47.725Z,72.80
2023-01-04T02:54:54.291Z,72.62
2023-01-04T02:56:09.500Z,73.09
2023-01-04T02:57:30.079Z,72.58
2023-01-04T02:58:55.794Z,72.40
2023-01-04T03:00:26.207Z,72.98
2023-01-04T03:01:55.488Z,72.75
2023-01-04T03:03:28.750Z,72.96
2023-01-04T03:05:01.382Z,72.61
2023-01-04T03:06:17.059Z,72.62
2023-01-04T03:07:28.938Z,72.66
2023-01-04T03:08:34.444Z,72.63
2023-01-04T03:09:44.827Z,72.66
2023-01-04T03:10:55.859Z,72.72
2023-01-04T03:12:21.066Z,72.75
2023-01-04T03:13:29.420Z,72.90
2023-01-04T03:14:37.885Z,72.89
2023-01-04T03:15:43.866Z,72.86
2023-01-04T03:16:48.111Z,72.96
2023-01-04T03:17:55.549Z,72.94
2023-01-04T03:19:04.285Z,73.00
2023-01-04T03:20:09.981Z,72.83
2023-01-04T03:21:14.440Z,72.83
2023-01-04T03:22:39.019Z,72.77
2023-01-04T03:24:00.938Z,72.92
2023-01-04T03:25:23.358Z,73.08
2023-01-04T03:26:48.501Z,72.67
2023-01-04T03:28:10.869Z,72.59
2023-01-04T03:29:37.212Z,72.86
2023-01-04T03:31:06.695Z,72.64
2023-01-04T03:32:30.155Z,72.65
2023-01-04T03:33:51.181Z,72.84
2023-01-04T03:35:13.914Z,73.04
2023-01-04T03:36:28.094Z,73.03
2023-01-04T03:37:36.872Z,72.81
2023-01-04T03:39:03.037Z,73.00
2023-01-04T03:40:38.895Z,72.97
2023-01-04T03:42:04.370Z,72.50
2023-01-04T03:43:30.383Z,72.85
2023-01-04T03:45:05.914Z,72.68
2023-01-04T03:46:37.370Z,72.74
2023-01-04T03:48:06.894Z,72.70
2023-01-04T03:49:15.297Z,73.11
2023-01-04T03:50:24.349Z,72.79
2023-01-04T03:51:30.434Z,72.66
2023-01-04T03:52:35.471Z,72.71
2023-01-04T03:53:42.402Z,73.29
2023-01-04T03:54:48.289Z,72.99
2023-01-04T03:55:53.788Z,72.85
2023-01-04T03:56:57.848Z,72.85
2023-01-04T03:58:01.559Z,73.01
2023-01-04T03:59:05.448Z,72.79
2023-01-04T04:00:13.110Z,72.67
2023-01-04T04:01:15.589Z,72.93
2023-01-04T04:02:26.487Z,72.92
2023-01-04T04:03:28.541Z,72.90
2023-01-04T04:04:48.925Z,72.75
2023-01-04T04:06:10.487Z,73.04
2023-01-04T04:07:30.798Z,73.07
2023-01-04T04:08:33.634Z,73.08
2023-01-04T04:09:35.547Z,73.19
2023-01-04T04:10:38.460Z,72.93
2023-01-04T04:11:40.397Z,73.18
2023-01-04T04:12:43.361Z,72.97
2023-01-04T04:13:45.502Z,72.90
2023-01-04T04:14:48.379Z,72.90
2023-01-04T04:15:52.889Z,72.60
2023-01-04T04:16:55.816Z,72.78
2023-01-04T04:17:57.705Z,72.73
2023-01-04T04:19:06.391Z,72.96
2023-01-04T04:20:11.412Z,72.79
2023-01-04T04:21:16.019Z,72.86
2023-01-04T04:22:17.985Z,72.84
2023-01-04T04:23:20.843Z,73.16
2023-01-04T04:24:25.102Z,73.04
2023-01-04T04:25:27.957Z,72.76
2023-01-04T04:26:29.861Z,72.68
2023-01-04T04:27:32.780Z,72.99
2023-01-04T04:28:34.638Z,72.85
2023-01-04T04:29:37.504Z,73.05
2023-01-04T04:30:40.667Z,73.05
2023-01-04T04:31:43.571Z,73.08
2023-01-04T04:32:45.458Z,72.96
2023-01-04T04:33:48.458Z,73.11
2023-01-04T04:34:50.440Z,73.00
2023-01-04T04:35:53.860Z,73.01
2023-01-04T04:36:58.188Z,72.88
2023-01-04T04:38:00.176Z,73.03
2023-01-04T04:39:03.055Z,73.03
2023-01-04T04:40:05.627Z,73.05
2023-01-04T04:41:32.455Z,72.94
2023-01-04T04:42:35.327Z,73.13
2023-01-04T04:43:37.262Z,73.04
2023-01-04T04:44:40.142Z,73.18
2023-01-04T04:45:42.014Z,73.06
2023-01-04T04:46:46.389Z,73.21
2023-01-04T04:47:48.225Z,72.94
2023-01-04T04:48:51.513Z,72.94
2023-01-04T04:49:54.429Z,73.12
2023-01-04T04:50:56.377Z,73.10
2023-01-04T04:52:00.750Z,73.06
2023-01-04T04:53:02.705Z,73.06
2023-01-04T04:54:06.022Z,73.16
2023-01-04T04:55:08.484Z,73.06
2023-01-04T04:56:11.717Z,73.03
2023-01-04T04:57:14.663Z,73.12
2023-01-04T04:58:16.540Z,72.88
2023-01-04T04:59:19.480Z,73.42
2023-01-04T05:00:21.700Z,73.08
2023-01-04T05:01:24.966Z,73.25
2023-01-04T05:02:27.317Z,73.11
2023-01-04T05:03:30.513Z,73.10
2023-01-04T05:04:32.499Z,73.34
2023-01-04T05:05:35.463Z,73.31
2023-01-04T05:06:37.332Z,73.20
2023-01-04T05:07:41.625Z,73.07
2023-01-04T05:08:43.622Z,73.11
2023-01-04T05:09:46.503Z,73.29
2023-01-04T05:10:48.620Z,73.26
2023-01-04T05:12:09.352Z,73.15
2023-01-04T05:13:13.151Z,73.18
2023-01-04T05:14:15.191Z,73.15
2023-01-04T05:15:17.337Z,73.17
2023-01-04T05:16:20.355Z,73.34
2023-01-04T05:17:22.246Z,73.08
2023-01-04T05:18:25.101Z,73.22
2023-01-04T05:19:26.986Z,73.24
2023-01-04T05:20:29.939Z,73.20
2023-01-04T05:21:31.877Z,73.21
2023-01-04T05:22:34.735Z,73.23
2023-01-04T05:23:38.009Z,73.39
2023-01-04T05:24:40.955Z,73.51
2023-01-04T05:25:43.230Z,73.21
2023-01-04T05:26:46.057Z,73.49
2023-01-04T05:27:48.079Z,73.38
2023-01-04T05:28:53.928Z,73.11
2023-01-04T05:30:14.848Z,73.32
2023-01-04T05:31:58.203Z,73.19
2023-01-04T05:33:32.600Z,73.44
2023-01-04T05:42:36.010Z,73.19
2023-01-04T05:43:40.779Z,73.05
2023-01-04T05:44:43.738Z,73.21
2023-01-04T05:45:49.711Z,73.58
2023-01-04T05:46:54.657Z,73.25
2023-01-04T05:47:58.070Z,73.30
2023-01-04T05:49:00.059Z,73.26
2023-01-04T05:50:06.242Z,73.54
2023-01-04T05:51:09.104Z,73.25
2023-01-04T05:52:11.382Z,73.43
2023-01-04T05:53:18.773Z,73.83
2023-01-04T05:54:21.734Z,73.50
2023-01-04T05:55:27.183Z,73.83
2023-01-04T05:56:30.417Z,73.52
2023-01-04T05:57:33.343Z,73.47
2023-01-04T05:58:38.189Z,73.22
2023-01-04T05:59:42.360Z,73.37
2023-01-04T06:00:45.427Z,73.32
2023-01-04T06:01:47.388Z,73.52
2023-01-04T06:02:52.530Z,73.36
2023-01-04T06:03:54.624Z,73.48
2023-01-04T06:05:00.341Z,73.48
2023-01-04T06:06:02.388Z,73.30
2023-01-04T06:07:07.844Z,73.33
2023-01-04T06:08:10.828Z,73.44
2023-01-04T06:09:13.239Z,73.59
2023-01-04T06:10:16.268Z,73.06
2023-01-04T06:11:22.619Z,73.54
2023-01-04T06:12:29.929Z,73.45
2023-01-04T06:13:32.066Z,73.69
2023-01-04T06:14:35.030Z,73.40
2023-01-04T06:15:42.882Z,73.68
2023-01-04T06:16:46.063Z,73.68
2023-01-04T06:17:48.966Z,73.63
2023-01-04T06:18:53.281Z,73.68
2023-01-04T06:19:59.170Z,73.80
2023-01-04T06:21:03.673Z,73.54
2023-01-04T06:22:07.079Z,73.57
2023-01-04T06:23:09.152Z,73.27
2023-01-04T06:24:12.376Z,73.66
2023-01-04T06:25:15.415Z,73.70
2023-01-04T06:26:17.353Z,73.15
2023-01-04T06:27:20.437Z,73.66
2023-01-04T06:28:23.652Z,73.58
2023-01-04T06:29:29.120Z,73.78
2023-01-04T06:30:31.079Z,73.44
2023-01-04T06:31:34.639Z,73.48
2023-01-04T06:32:37.913Z,73.50
2023-01-04T06:33:40.302Z,73.55
2023-01-04T06:34:48.806Z,73.42
2023-01-04T06:35:57.275Z,73.68
2023-01-04T06:37:00.345Z,73.55
2023-01-04T06:38:02.299Z,73.32
2023-01-04T06:39:05.313Z,73.21
2023-01-04T06:40:09.830Z,73.21
2023-01-04T06:41:12.129Z,73.75
2023-01-04T06:42:28.922Z,73.65
2023-01-04T06:43:33.168Z,73.77
2023-01-04T06:44:35.992Z,73.98
2023-01-04T06:45:37.855Z,73.52
2023-01-04T06:46:41.925Z,73.71
2023-01-04T06:47:44.402Z,73.77
2023-01-04T06:48:47.252Z,73.79
2023-01-04T06:49:49.178Z,73.52
2023-01-04T06:50:52.077Z,73.78
2023-01-04T06:51:54.050Z,73.83
2023-01-04T06:52:56.986Z,73.85
2023-01-04T06:53:58.908Z,73.96
2023-01-04T06:55:01.770Z,73.82
2023-01-04T06:56:03.943Z,73.93
2023-01-04T06:57:06.890Z,73.71
2023-01-04T06:58:08.752Z,74.09
2023-01-04T06:59:13.349Z,73.49
2023-01-04T07:00:16.975Z,74.05
2023-01-04T07:01:18.928Z,73.33
2023-01-04T07:02:22.012Z,73.68
2023-01-04T07:03:24.020Z,74.25
2023-01-04T07:04:27.120Z,74.09
2023-01-04T07:05:30.263Z,73.82
2023-01-04T07:06:32.139Z,73.86
2023-01-04T07:07:35.513Z,74.13
2023-01-04T07:08:37.630Z,73.66
2023-01-04T07:09:40.608Z,74.08
2023-01-04T07:10:42.818Z,73.99
2023-01-04T07:11:45.708Z,73.82
2023-01-04T07:12:47.675Z,74.00
2023-01-04T07:13:52.782Z,73.84
2023-01-04T07:14:57.105Z,73.91
2023-01-04T07:15:59.029Z,73.85
2023-01-04T07:17:01.955Z,73.90
2023-01-04T07:18:04.082Z,73.85
2023-01-04T07:19:09.183Z,73.80
2023-01-04T07:20:11.899Z,73.71
2023-01-04T07:21:15.003Z,73.77
2023-01-04T07:22:17.125Z,73.63
2023-01-04T07:23:20.098Z,74.14
2023-01-04T07:24:27.904Z,73.72
2023-01-04T07:25:32.969Z,73.65
2023-01-04T07:26:37.003Z,73.72
2023-01-04T07:27:40.070Z,73.87
2023-01-04T07:29:00.351Z,73.79
2023-01-04T07:30:05.373Z,73.70
2023-01-04T07:31:08.279Z,74.09
2023-01-04T07:32:14.007Z,74.01
2023-01-04T07:33:17.266Z,73.68
2023-01-04T07:34:22.225Z,73.60
2023-01-04T07:35:24.510Z,73.51
2023-01-04T07:36:27.419Z,73.40
2023-01-04T07:37:29.316Z,73.20
2023-01-04T07:38:32.439Z,73.40
2023-01-04T07:39:35.367Z,73.27
2023-01-04T07:40:37.189Z,73.33
2023-01-04T07:41:59.172Z,72.97
2023-01-04T07:43:02.100Z,72.93
2023-01-04T07:44:08.961Z,72.89
2023-01-04T07:45:12.364Z,72.99
2023-01-04T07:46:20.303Z,73.04
2023-01-04T07:47:25.457Z,72.98
2023-01-04T07:48:29.636Z,73.26
2023-01-04T07:49:32.864Z,73.07
2023-01-04T07:50:35.782Z,73.04
2023-01-04T07:51:37.656Z,73.17
2023-01-04T07:52:43.437Z,72.84
2023-01-04T07:53:45.477Z,73.45
2023-01-04T07:54:48.319Z,73.50
2023-01-04T07:55:56.605Z,73.31
2023-01-04T07:57:00.219Z,73.40
2023-01-04T07:58:05.068Z,73.71
2023-01-04T07:59:08.073Z,73.94
2023-01-04T08:00:14.047Z,73.94
2023-01-04T08:01:19.536Z,74.12
2023-01-04T08:02:21.835Z,73.99
2023-01-04T08:03:24.772Z,74.05
2023-01-04T08:04:32.729Z,74.19
2023-01-04T08:05:37.749Z,74.12
2023-01-04T08:06:40.787Z,74.25
2023-01-04T08:07:43.701Z,74.40
2023-01-04T08:08:48.947Z,74.53
2023-01-04T08:09:51.868Z,74.45
2023-01-04T08:10:55.880Z,74.69
2023-01-04T08:12:06.690Z,74.55
2023-01-04T08:13:08.639Z,74.83
2023-01-04T08:14:11.933Z,75.20
2023-01-04T08:15:15.405Z,75.08
2023-01-04T08:16:23.860Z,75.17
2023-01-04T08:17:26.790Z,75.06
2023-01-04T08:18:28.933Z,75.09
2023-01-04T08:19:32.002Z,75.27
2023-01-04T08:20:33.870Z,75.21
2023-01-04T08:21:39.219Z,75.44
2023-01-04T08:22:41.125Z,75.53
2023-01-04T08:23:44.102Z,75.82
2023-01-04T08:24:46.980Z,75.49
2023-01-04T08:25:48.871Z,75.55
2023-01-04T08:26:51.774Z,75.65
2023-01-04T08:27:53.691Z,75.83
2023-01-04T08:28:57.490Z,75.87
2023-01-04T08:30:00.417Z,76.03
2023-01-04T08:31:07.192Z,75.30
2023-01-04T08:32:10.553Z,76.34
2023-01-04T08:33:16.039Z,76.73
2023-01-04T08:34:19.100Z,76.26
2023-01-04T08:35:21.444Z,76.28
2023-01-04T08:36:27.431Z,76.22
2023-01-04T08:37:35.407Z,76.72
2023-01-04T08:40:01.885Z,76.71
2023-01-04T08:41:23.545Z,76.18
2023-01-04T08:42:31.582Z,75.19
2023-01-04T08:43:35.796Z,75.74
2023-01-04T08:44:38.928Z,76.15
2023-01-04T08:45:43.313Z,76.95
2023-01-04T08:46:48.037Z,76.40
2023-01-04T08:47:50.894Z,76.55
2023-01-04T08:48:52.862Z,77.08
2023-01-04T08:49:59.457Z,76.63
2023-01-04T08:51:06.642Z,76.70
2023-01-04T08:52:13.768Z,77.20
2023-01-04T08:53:15.768Z,76.84
2023-01-04T08:54:19.300Z,76.97
2023-01-04T08:55:23.935Z,77.11
2023-01-04T08:56:27.320Z,77.38
2023-01-04T08:57:30.183Z,77.37
2023-01-04T08:58:32.782Z,77.45
2023-01-04T08:59:38.543Z,77.46
2023-01-04T09:00:42.550Z,77.29
2023-01-04T09:01:49.871Z,77.37
2023-01-04T09:02:55.266Z,77.63
2023-01-04T09:03:58.434Z,77.76
2023-01-04T09:05:04.484Z,77.77
2023-01-04T09:06:13.254Z,77.84
2023-01-04T09:07:19.473Z,77.77
2023-01-04T09:08:23.405Z,77.88
2023-01-04T09:09:26.642Z,77.79
2023-01-04T09:10:32.132Z,77.64
2023-01-04T09:11:35.436Z,77.85
2023-01-04T09:12:39.160Z,77.55
2023-01-04T09:13:41.655Z,77.97
2023-01-04T09:14:45.940Z,77.84
2023-01-04T09:15:48.202Z,78.01
2023-01-04T09:17:10.924Z,78.20
2023-01-04T09:18:33.323Z,78.43
2023-01-04T09:19:36.392Z,78.54
2023-01-04T09:20:38.506Z,78.68
2023-01-04T09:21:41.594Z,78.74
2023-01-04T09:22:43.671Z,79.30
2023-01-04T09:23:47.401Z,78.62
2023-01-04T09:24:50.407Z,78.40
2023-01-04T09:25:52.281Z,79.30
2023-01-04T09:26:55.214Z,85.93
2023-01-04T09:27:57.394Z,84.54
2023-01-04T09:29:00.305Z,82.32
2023-01-04T09:30:02.563Z,81.13
2023-01-04T09:31:07.072Z,80.42
2023-01-04T09:32:16.350Z,79.72
2023-01-04T09:33:19.749Z,79.50
2023-01-04T09:34:32.028Z,79.67
2023-01-04T09:35:35.381Z,79.40
2023-01-04T09:36:41.669Z,79.69
2023-01-04T09:37:47.479Z,79.61
2023-01-04T09:39:18.723Z,80.00
2023-01-04T09:40:37.518Z,79.82
2023-01-04T10:11:40.378Z,79.75
2023-01-04T10:15:45.626Z,80.28
2023-01-04T10:17:20.347Z,79.65
2023-01-04T10:20:07.917Z,79.73
2023-01-04T10:22:26.202Z,80.09
2023-01-04T10:23:42.473Z,79.87
2023-01-04T10:25:01.785Z,80.48
2023-01-04T10:26:15.400Z,79.90
2023-01-04T10:27:30.021Z,80.19
2023-01-04T10:28:48.331Z,79.92
2023-01-04T10:30:05.940Z,79.85
2023-01-04T10:31:39.623Z,80.17
2023-01-04T10:32:53.135Z,79.70
2023-01-04T10:34:36.291Z,80.14
2023-01-04T10:38:33.845Z,79.68
2023-01-04T10:39:37.964Z,79.57
2023-01-04T10:40:45.111Z,79.88
2023-01-04T10:42:00.904Z,79.38
2023-01-04T10:45:44.308Z,79.27
2023-01-04T10:46:59.550Z,78.81
2023-01-04T10:48:13.624Z,78.55
2023-01-04T10:49:32.066Z,78.64
2023-01-04T10:50:45.721Z,78.60
2023-01-04T10:51:59.307Z,78.24
2023-01-04T10:53:42.256Z,78.48
2023-01-04T10:55:04.411Z,78.13
2023-01-04T10:56:26.382Z,77.81
2023-01-04T10:57:39.101Z,77.25
2023-01-04T10:58:50.853Z,76.75
2023-01-04T11:00:05.199Z,77.09
2023-01-04T11:01:39.479Z,76.72
2023-01-04T11:03:08.243Z,76.53
2023-01-04T11:04:23.012Z,76.84
2023-01-04T11:05:33.084Z,77.00
2023-01-04T11:07:02.188Z,77.50
2023-01-04T11:09:03.755Z,84.31
2023-01-04T11:10:42.805Z,86.45
2023-01-04T11:11:49.098Z,80.37
2023-01-04T11:12:56.166Z,77.78
2023-01-04T11:14:01.449Z,75.91
2023-01-04T11:15:05.228Z,75.22
2023-01-04T11:16:08.099Z,74.25
2023-01-04T11:17:14.014Z,73.79
2023-01-04T11:18:18.196Z,73.69
2023-01-04T11:19:20.297Z,74.50
2023-01-04T11:20:27.244Z,74.03
2023-01-04T11:21:38.425Z,74.09
2023-01-04T11:22:47.722Z,73.81
2023-01-04T11:23:49.718Z,73.49
2023-01-04T11:26:33.912Z,73.46
2023-01-04T11:27:49.688Z,73.27
2023-01-04T11:28:57.551Z,72.76
2023-01-04T11:30:13.443Z,72.88
2023-01-04T11:31:23.721Z,72.95
2023-01-04T11:32:36.797Z,72.70
2023-01-04T11:33:53.772Z,73.05
2023-01-04T11:34:57.802Z,72.74
2023-01-04T11:36:09.971Z,72.57
2023-01-04T11:37:28.749Z,71.39
2023-01-04T11:38:31.923Z,71.42
2023-01-04T11:39:33.816Z,71.14
2023-01-04T11:40:36.825Z,70.40
2023-01-04T11:41:39.715Z,70.64
2023-01-04T11:42:41.652Z,70.85
2023-01-04T11:43:58.566Z,71.32
2023-01-04T11:45:00.599Z,71.79
2023-01-04T11:46:06.253Z,71.60
2023-01-04T11:47:16.815Z,71.74
2023-01-04T11:48:31.591Z,71.72
2023-01-04T11:49:40.772Z,71.36
2023-01-04T11:50:45.984Z,71.92
2023-01-04T11:57:20.529Z,70.35
2023-01-04T11:58:22.504Z,70.14
2023-01-04T11:59:25.978Z,70.39
2023-01-04T12:00:30.031Z,70.36
2023-01-04T12:01:34.162Z,70.31
2023-01-04T12:08:01.461Z,69.26
2023-01-04T12:10:05.161Z,69.52
2023-01-04T12:11:20.218Z,69.18
2023-01-04T12:12:26.401Z,69.48
2023-01-04T12:13:28.879Z,69.32
2023-01-04T12:14:36.377Z,69.81
2023-01-04T12:15:47.902Z,68.85
2023-01-04T12:16:58.220Z,68.91
2023-01-04T12:18:04.366Z,68.33
2023-01-04T12:19:07.642Z,69.40
2023-01-04T12:20:19.217Z,68.67
2023-01-04T12:21:23.912Z,67.89
2023-01-04T12:22:34.471Z,68.58
2023-01-04T12:23:39.857Z,68.07
2023-01-04T12:24:47.826Z,67.51
2023-01-04T12:25:56.461Z,68.23
2023-01-04T12:27:01.614Z,68.54
2023-01-04T12:28:04.291Z,68.81
2023-01-04T12:29:49.901Z,68.21
2023-01-04T12:30:51.820Z,70.97
2023-01-04T12:32:16.770Z,68.43
2023-01-04T12:33:39.677Z,68.20
2023-01-04T12:34:44.301Z,67.69
2023-01-04T12:36:02.971Z,67.68
2023-01-04T12:37:06.717Z,67.39
2023-01-04T12:38:10.737Z,66.99
2023-01-04T12:39:43.337Z,67.23
2023-01-04T12:40:55.220Z,67.79
2023-01-04T12:42:29.847Z,67.53
2023-01-04T12:45:39.569Z,67.08
2023-01-04T12:47:15.591Z,66.96
2023-01-04T12:48:53.918Z,67.34
2023-01-04T12:50:07.419Z,67.38
2023-01-04T12:51:33.808Z,67.14
2023-01-04T12:54:24.255Z,66.63
2023-01-04T12:56:10.405Z,66.59
2023-01-04T12:57:28.336Z,66.44
2023-01-04T12:59:15.471Z,66.14
2023-01-04T13:00:07.722Z,66.19
2023-01-04T13:01:24.445Z,66.47
2023-01-04T13:03:05.131Z,66.35
2023-01-04T13:04:29.321Z,66.39
2023-01-04T13:07:42.011Z,65.41
2023-01-04T13:09:26.216Z,65.36
2023-01-04T13:10:36.363Z,65.63
2023-01-04T13:12:22.672Z,65.83
2023-01-04T13:13:35.765Z,65.92
2023-01-04T13:14:50.664Z,66.08
2023-01-04T13:16:05.096Z,64.40
2023-01-04T13:17:15.627Z,65.22
2023-01-04T13:18:34.757Z,64.45
2023-01-04T13:19:40.738Z,64.40
2023-01-04T13:20:43.054Z,65.29
2023-01-04T13:21:49.748Z,64.42
2023-01-04T13:22:55.260Z,63.85
2023-01-04T13:24:01.817Z,64.16
2023-01-04T13:25:12.301Z,63.53
2023-01-04T13:26:45.935Z,63.39
2023-01-04T13:28:00.956Z,63.64
2023-01-04T13:29:14.150Z,63.10
2023-01-04T13:30:30.724Z,62.94
2023-01-04T13:31:34.688Z,61.77
2023-01-04T13:33:07.624Z,61.56
2023-01-04T13:34:01.756Z,61.42
2023-01-04T13:35:14.110Z,61.91
2023-01-04T13:36:16.647Z,62.18
2023-01-04T13:37:28.248Z,61.44
2023-01-04T13:38:35.273Z,61.01
2023-01-04T13:39:39.076Z,61.01
2023-01-04T13:40:50.081Z,61.89
2023-01-04T13:41:53.847Z,59.89
2023-01-04T13:43:10.854Z,60.41
2023-01-04T13:44:26.034Z,59.85
2023-01-04T13:45:52.203Z,59.72
2023-01-04T13:46:55.481Z,59.80
2023-01-04T13:48:01.757Z,59.89
2023-01-04T13:49:04.964Z,60.05
2023-01-04T13:50:24.051Z,59.23
2023-01-04T13:51:36.255Z,58.92
2023-01-04T13:53:05.493Z,58.32
2023-01-04T13:54:03.765Z,58.45
2023-01-04T13:55:18.744Z,58.26
2023-01-04T13:56:23.401Z,57.86
2023-01-04T13:57:26.311Z,57.69
2023-01-04T13:58:31.557Z,57.07
2023-01-04T13:59:35.946Z,57.70
2023-01-04T14:00:45.784Z,57.62
2023-01-04T14:01:50.016Z,57.83
2023-01-04T14:03:07.862Z,59.13
2023-01-04T14:04:18.566Z,58.21
2023-01-04T14:05:20.549Z,57.98
2023-01-04T14:06:28.857Z,58.19
2023-01-04T14:07:30.841Z,57.89
2023-01-04T14:08:37.726Z,57.92
2023-01-04T14:09:47.674Z,58.25
2023-01-04T14:10:50.433Z,58.73
2023-01-04T14:12:07.387Z,58.04
2023-01-04T14:13:38.418Z,57.54
2023-01-04T14:14:51.008Z,58.13
2023-01-04T14:16:12.061Z,58.19
2023-01-04T14:17:20.352Z,58.85
2023-01-04T14:18:28.278Z,58.58
2023-01-04T14:19:42.641Z,58.43
2023-01-04T14:20:45.611Z,57.84
2023-01-04T14:21:49.355Z,58.15
2023-01-04T14:22:53.838Z,58.47
2023-01-04T14:23:55.792Z,58.59
2023-01-04T14:25:15.581Z,58.80
2023-01-04T14:26:36.549Z,58.65
2023-01-04T14:27:40.629Z,58.75
2023-01-04T14:28:49.585Z,58.33
2023-01-04T14:29:53.411Z,59.20
2023-01-04T14:31:11.802Z,59.34
2023-01-04T14:32:14.865Z,58.32
2023-01-04T14:33:18.966Z,58.86
2023-01-04T14:34:21.830Z,58.68
2023-01-04T14:35:24.755Z,59.55
2023-01-04T14:36:30.174Z,59.72
2023-01-04T14:37:35.636Z,59.14
2023-01-04T14:43:48.543Z,58.31
2023-01-04T14:44:51.449Z,58.29
2023-01-04T14:45:54.739Z,58.14
2023-01-04T14:46:59.887Z,57.59
2023-01-04T14:48:02.880Z,58.66
2023-01-04T14:49:05.442Z,58.79
2023-01-04T14:50:09.634Z,58.03
2023-01-04T14:51:15.388Z,58.69
2023-01-04T14:52:23.701Z,58.96
2023-01-04T14:53:25.801Z,58.73
2023-01-04T14:54:30.333Z,58.50
2023-01-04T14:55:32.173Z,58.39
2023-01-04T14:56:35.743Z,58.64
2023-01-04T14:57:43.269Z,59.08
2023-01-04T14:58:45.617Z,58.75
2023-01-04T14:59:48.579Z,59.30
2023-01-04T15:00:53.989Z,59.09
2023-01-04T15:01:59.351Z,59.08
2023-01-04T15:03:02.573Z,58.51
2023-01-04T15:04:05.658Z,58.05
2023-01-04T15:05:09.528Z,58.44
2023-01-04T15:06:12.373Z,59.04
2023-01-04T15:07:35.363Z,58.85
2023-01-04T15:08:38.362Z,58.75
2023-01-04T15:09:41.213Z,59.16
2023-01-04T15:10:43.137Z,60.04
2023-01-04T15:11:46.157Z,60.65
2023-01-04T15:12:49.266Z,60.82
2023-01-04T15:13:52.213Z,60.96
2023-01-04T15:14:55.100Z,61.24
2023-01-04T15:15:57.463Z,61.44
2023-01-04T15:17:01.732Z,61.19
2023-01-04T15:18:16.451Z,61.84
2023-01-04T15:19:19.437Z,62.27
2023-01-04T15:24:06.309Z,63.41
2023-01-04T15:25:11.035Z,63.21
2023-01-04T15:26:14.008Z,63.13
2023-01-04T15:27:17.548Z,63.31
2023-01-04T15:28:21.940Z,63.77
2023-01-04T15:29:24.877Z,63.69
2023-01-04T15:30:27.022Z,63.82
2023-01-04T15:31:36.684Z,64.87
2023-01-04T15:32:42.810Z,63.90
2023-01-04T15:33:45.995Z,64.34
2023-01-04T15:34:48.915Z,64.26
2023-01-04T15:36:00.182Z,64.84
2023-01-04T15:37:03.163Z,64.96
2023-01-04T15:38:06.678Z,64.93
2023-01-04T15:39:13.261Z,64.97
2023-01-04T15:40:18.268Z,66.77
2023-01-04T15:41:35.111Z,65.13
2023-01-04T15:42:56.178Z,65.35
2023-01-04T15:43:59.396Z,65.77
2023-01-04T15:45:02.262Z,66.11
2023-01-04T15:46:07.940Z,66.35
2023-01-04T15:47:11.189Z,66.31
2023-01-04T15:48:14.489Z,67.13
2023-01-04T15:49:18.103Z,66.82
2023-01-04T15:50:20.796Z,67.00
2023-01-04T15:51:23.900Z,66.45
2023-01-04T15:52:26.824Z,66.95
2023-01-04T15:53:29.672Z,67.03
2023-01-04T15:54:32.776Z,67.54
2023-01-04T15:55:36.648Z,67.98
2023-01-04T15:56:40.015Z,68.38
2023-01-04T15:57:44.303Z,67.72
2023-01-04T15:58:47.487Z,68.31
2023-01-04T15:59:50.492Z,68.70
2023-01-04T16:00:58.517Z,68.72
2023-01-04T16:02:05.652Z,68.85